Time;durP1;ratioP1;P1;durP2;ratioP2;P2;SDS_P1;SDS_P2;PMS_P1;PMS_P2;Temp;Humidity;BMP_temperature;BMP_pressure;BME280_temperature;BME280_humidity;BME280_pressure;Samples;Min_cycle;Max_cycle;Signal;HPM_P1;HPM_P2
2023/05/09 00:01:19;;;;;;;3.20;3.00;;;;;;;14.81;60.04;95201.53;5004769;28;20186;-68
2023/05/09 00:03:45;;;;;;;3.40;3.13;;;;;;;14.94;59.88;95200.94;5032828;28;20222;-68
2023/05/09 00:06:12;;;;;;;3.15;2.85;;;;;;;14.67;60.34;95194.28;5028962;28;20820;-68
2023/05/09 00:08:37;;;;;;;3.22;3.03;;;;;;;14.84;60.01;95193.22;5039268;28;20312;-68
2023/05/09 00:11:03;;;;;;;2.97;2.78;;;;;;;14.96;59.71;95188.34;5031632;28;20333;-67
2023/05/09 00:13:28;;;;;;;4.32;3.42;;;;;;;14.98;59.88;95197.78;5043668;28;20190;-68
2023/05/09 00:15:56;;;;;;;3.20;2.90;;;;;;;15.02;59.66;95194.78;5028366;28;20217;-67
2023/05/09 00:18:21;;;;;;;3.17;2.97;;;;;;;15.13;59.48;95197.00;5023213;28;20294;-67
2023/05/09 00:20:48;;;;;;;2.92;2.72;;;;;;;14.84;60.40;95195.06;5034842;28;20218;-67
2023/05/09 00:23:13;;;;;;;3.03;2.80;;;;;;;14.90;59.84;95197.81;5031867;28;20263;-67
2023/05/09 00:25:39;;;;;;;3.15;2.95;;;;;;;14.98;59.68;95189.81;5035301;28;20190;-67
2023/05/09 00:28:04;;;;;;;3.15;2.95;;;;;;;14.85;60.30;95194.88;5044810;28;20201;-67
2023/05/09 00:30:30;;;;;;;3.30;3.00;;;;;;;14.91;60.45;95191.50;5035987;28;20213;-67
2023/05/09 00:32:55;;;;;;;3.20;2.90;;;;;;;15.03;59.99;95185.84;5036639;28;20304;-68
2023/05/09 00:35:21;;;;;;;3.33;3.03;;;;;;;14.81;60.71;95184.78;5036904;28;20334;-67
2023/05/09 00:37:46;;;;;;;3.13;2.92;;;;;;;14.81;60.35;95184.78;5038587;28;20181;-67
2023/05/09 00:40:12;;;;;;;3.47;3.17;;;;;;;14.87;60.44;95189.41;5048018;28;20209;-67
2023/05/09 00:42:38;;;;;;;3.15;2.92;;;;;;;14.99;59.75;95190.66;5034159;28;20272;-67
2023/05/09 00:45:04;;;;;;;3.60;3.30;;;;;;;15.08;59.48;95186.16;5034255;28;20224;-67
2023/05/09 00:47:30;;;;;;;3.35;3.05;;;;;;;15.11;59.25;95183.16;5029807;28;20221;-67
2023/05/09 00:49:57;;;;;;;3.42;3.17;;;;;;;15.05;59.68;95189.13;5038782;28;20221;-68
2023/05/09 00:52:25;;;;;;;3.60;3.30;;;;;;;15.12;59.18;95188.25;5032816;28;20198;-67
2023/05/09 00:54:52;;;;;;;3.20;3.00;;;;;;;15.06;59.53;95190.78;5031778;28;20210;-67
2023/05/09 00:57:17;;;;;;;3.47;3.22;;;;;;;15.03;59.87;95194.59;5031503;28;20222;-68
2023/05/09 00:59:43;;;;;;;3.00;2.80;;;;;;;15.11;59.36;95191.09;5024307;28;20225;-68
2023/05/09 01:02:09;;;;;;;3.45;3.15;;;;;;;15.11;59.27;95194.56;5037058;28;20213;-67
2023/05/09 01:04:34;;;;;;;3.58;3.35;;;;;;;15.00;59.47;95189.66;5030216;28;20234;-67
2023/05/09 01:07:12;;;;;;;3.70;3.40;;;;;;;15.02;59.41;95185.00;5014829;28;20190;-67
2023/05/09 01:10:04;;;;;;;3.83;3.40;;;;;;;15.02;59.68;95192.13;4988557;28;20963;-67
2023/05/09 01:12:55;;;;;;;3.97;3.58;;;;;;;14.94;59.94;95187.69;5015623;28;20249;-67
2023/05/09 01:15:45;;;;;;;3.83;3.45;;;;;;;14.87;59.97;95186.75;5016410;28;20280;-70
2023/05/09 01:18:17;;;;;;;4.05;3.65;;;;;;;14.90;59.17;95187.22;5017876;28;20306;-70
2023/05/09 01:20:46;;;;;;;4.18;3.85;;;;;;;14.96;59.14;95177.75;5018322;28;20226;-67
2023/05/09 01:23:33;;;;;;;4.13;3.40;;;;;;;14.98;58.94;95184.53;5004974;28;20230;-69
2023/05/09 01:26:42;;;;;;;3.47;3.17;;;;;;;15.01;58.73;95183.38;5012087;28;20236;-69
2023/05/09 01:29:25;;;;;;;3.92;3.63;;;;;;;14.89;59.58;95180.28;4987026;28;20280;-69
2023/05/09 01:31:54;;;;;;;3.83;3.30;;;;;;;14.88;59.30;95181.28;5013845;28;20183;-69
2023/05/09 01:34:24;;;;;;;4.03;3.58;;;;;;;14.97;58.97;95188.19;5009533;28;20252;-69
2023/05/09 01:36:54;;;;;;;3.90;3.50;;;;;;;14.99;58.80;95182.72;5013117;28;20224;-69
2023/05/09 01:39:23;;;;;;;4.10;3.72;;;;;;;15.01;58.83;95178.06;5025936;28;20226;-69
2023/05/09 01:41:49;;;;;;;3.97;3.47;;;;;;;15.00;58.70;95181.72;5013253;28;20210;-69
2023/05/09 01:44:15;;;;;;;4.10;3.75;;;;;;;14.99;58.82;95174.75;5002881;28;20224;-69
2023/05/09 01:46:42;;;;;;;4.13;3.75;;;;;;;14.97;58.91;95176.78;5009894;28;20182;-69
2023/05/09 01:49:08;;;;;;;3.60;3.30;;;;;;;14.98;58.56;95171.28;5006599;28;20178;-69
2023/05/09 01:51:36;;;;;;;3.63;3.40;;;;;;;14.99;59.01;95183.56;5022979;28;20228;-69
2023/05/09 01:54:04;;;;;;;3.92;3.53;;;;;;;14.92;59.15;95189.72;5005715;28;20222;-70
2023/05/09 01:56:31;;;;;;;4.22;3.83;;;;;;;14.89;59.37;95184.75;5015236;28;20218;-67
2023/05/09 01:58:57;;;;;;;4.40;4.00;;;;;;;14.86;59.11;95193.03;5008398;28;20234;-69
2023/05/09 02:01:23;;;;;;;4.03;3.65;;;;;;;14.90;59.27;95187.22;5007840;28;20179;-69
2023/05/09 02:03:53;;;;;;;3.97;3.58;;;;;;;14.93;58.94;95188.72;5015904;28;20249;-69
2023/05/09 02:06:21;;;;;;;4.20;3.90;;;;;;;14.89;59.13;95190.03;5022810;28;20224;-70
2023/05/09 02:08:48;;;;;;;5.53;3.35;;;;;;;14.91;59.11;95188.06;5033250;28;20225;-69
2023/05/09 02:11:13;;;;;;;3.58;3.28;;;;;;;14.92;58.62;95184.41;5030273;28;20237;-69
2023/05/09 02:13:39;;;;;;;4.03;3.72;;;;;;;14.94;59.04;95193.00;5034377;28;20190;-69
2023/05/09 02:16:06;;;;;;;4.30;3.90;;;;;;;14.84;59.19;95187.13;5030713;28;20215;-69
2023/05/09 02:18:33;;;;;;;4.10;3.70;;;;;;;14.88;58.89;95188.41;5015215;28;20226;-68
2023/05/09 02:20:59;;;;;;;3.80;3.50;;;;;;;14.79;59.07;95179.69;5022652;28;20218;-68
2023/05/09 02:23:24;;;;;;;3.90;3.40;;;;;;;14.74;59.32;95184.66;5026784;28;20687;-68
2023/05/09 02:25:52;;;;;;;4.75;4.35;;;;;;;14.67;59.68;95183.72;5042610;28;20193;-69
2023/05/09 02:28:19;;;;;;;4.20;3.80;;;;;;;14.42;60.16;95175.84;5027274;28;20252;-69
2023/05/09 02:30:48;;;;;;;4.75;4.03;;;;;;;14.66;59.79;95180.25;5029566;28;20271;-68
2023/05/09 02:33:14;;;;;;;4.32;3.92;;;;;;;14.70;59.71;95181.56;5045384;28;20213;-68
2023/05/09 02:35:43;;;;;;;4.15;3.75;;;;;;;14.70;59.87;95183.34;5034111;28;20232;-68
2023/05/09 02:38:08;;;;;;;4.05;3.75;;;;;;;14.68;59.70;95182.72;5026094;28;20314;-68
2023/05/09 02:40:34;;;;;;;3.92;3.63;;;;;;;14.70;59.65;95178.91;5043275;28;20281;-68
2023/05/09 02:42:59;;;;;;;4.43;4.03;;;;;;;14.76;59.65;95190.63;5033601;28;20182;-69
2023/05/09 02:45:25;;;;;;;6.68;4.32;;;;;;;14.80;59.53;95178.69;5031190;28;20218;-68
2023/05/09 02:47:51;;;;;;;5.30;4.18;;;;;;;14.80;59.91;95177.84;5030130;28;20221;-70
2023/05/09 02:50:17;;;;;;;4.38;3.97;;;;;;;14.81;59.94;95174.19;5031694;28;20232;-69
2023/05/09 02:52:42;;;;;;;5.60;4.07;;;;;;;14.70;60.09;95176.25;5029945;28;20194;-69
2023/05/09 02:55:08;;;;;;;4.13;3.78;;;;;;;14.69;59.77;95187.84;5034148;28;20212;-70
2023/05/09 02:57:34;;;;;;;4.55;4.13;;;;;;;14.73;59.81;95181.22;5041851;28;20224;-70
2023/05/09 02:59:59;;;;;;;4.35;3.85;;;;;;;14.77;59.67;95187.78;5031980;28;20221;-70
2023/05/09 03:02:25;;;;;;;5.70;3.92;;;;;;;14.78;59.64;95189.47;5033711;28;20220;-69
2023/05/09 03:04:51;;;;;;;4.53;4.13;;;;;;;14.88;59.56;95183.09;5029218;28;20184;-69
2023/05/09 03:07:16;;;;;;;4.72;3.90;;;;;;;14.91;59.56;95188.88;5028293;28;20213;-69
2023/05/09 03:09:42;;;;;;;5.13;4.22;;;;;;;14.79;59.87;95190.28;5026116;28;20213;-69
2023/05/09 03:12:07;;;;;;;4.18;3.78;;;;;;;14.78;59.52;95191.25;5032998;28;20308;-68
2023/05/09 03:14:33;;;;;;;4.43;4.00;;;;;;;14.84;59.57;95195.06;5027985;28;20217;-69
2023/05/09 03:16:58;;;;;;;4.53;4.13;;;;;;;14.86;59.44;95204.47;5023908;28;20219;-69
2023/05/09 03:19:24;;;;;;;4.15;3.75;;;;;;;14.85;59.58;95200.16;5029856;28;20212;-68
2023/05/09 03:21:49;;;;;;;4.47;4.05;;;;;;;14.90;59.26;95203.13;5024445;28;20217;-70
2023/05/09 03:24:15;;;;;;;4.05;3.75;;;;;;;14.85;59.33;95207.28;5022875;28;20214;-69
2023/05/09 03:26:40;;;;;;;6.93;4.25;;;;;;;14.91;59.62;95220.63;5028002;28;20222;-68
2023/05/09 03:29:05;;;;;;;5.72;4.35;;;;;;;14.99;59.29;95227.72;5020244;28;20225;-69
2023/05/09 03:31:31;;;;;;;4.60;4.20;;;;;;;14.94;59.61;95230.91;5033703;28;20186;-69
2023/05/09 03:33:57;;;;;;;4.60;4.15;;;;;;;14.91;59.77;95228.59;5025666;28;20218;-69
2023/05/09 03:36:22;;;;;;;4.20;3.83;;;;;;;14.87;60.23;95229.94;5024249;28;20250;-69
2023/05/09 03:38:48;;;;;;;4.88;4.38;;;;;;;14.87;60.17;95229.94;5031714;28;20222;-69
2023/05/09 03:41:16;;;;;;;4.78;4.10;;;;;;;14.90;60.10;95234.88;5029870;28;20224;-69
2023/05/09 03:43:41;;;;;;;5.05;4.55;;;;;;;14.88;60.02;95234.22;5032536;28;20284;-68
2023/05/09 03:46:06;;;;;;;5.45;4.32;;;;;;;14.87;60.29;95237.88;5032881;28;20276;-68
2023/05/09 03:48:32;;;;;;;5.20;4.70;;;;;;;14.78;60.40;95229.16;5042219;28;20225;-68
2023/05/09 03:50:57;;;;;;;4.80;4.15;;;;;;;14.83;60.20;95227.81;5030896;28;20213;-68
2023/05/09 03:53:23;;;;;;;5.03;4.63;;;;;;;14.91;60.25;95241.00;5043410;28;20214;-68
2023/05/09 03:55:48;;;;;;;5.35;4.80;;;;;;;14.77;60.48;95234.63;5030617;28;20193;-69
2023/05/09 03:58:14;;;;;;;4.55;4.03;;;;;;;14.82;60.45;95237.56;5043165;28;20225;-69
2023/05/09 04:00:40;;;;;;;6.10;4.40;;;;;;;14.68;60.75;95231.19;5026874;28;20222;-69
2023/05/09 04:03:05;;;;;;;5.10;4.60;;;;;;;14.75;60.57;95236.59;5031748;28;20237;-69
2023/05/09 04:05:32;;;;;;;5.10;4.60;;;;;;;14.82;60.57;95242.88;5036660;28;20221;-69
2023/05/09 04:07:58;;;;;;;5.13;4.63;;;;;;;14.84;60.31;95240.06;5030245;28;20237;-68
2023/05/09 04:10:24;;;;;;;7.18;5.55;;;;;;;14.64;60.93;95253.69;5028826;28;20248;-69
2023/05/09 04:12:50;;;;;;;5.63;5.13;;;;;;;14.62;60.81;95244.25;5030228;28;20214;-68
2023/05/09 04:15:15;;;;;;;4.85;4.40;;;;;;;14.68;60.69;95235.66;5027042;28;20225;-69
2023/05/09 04:17:40;;;;;;;5.22;4.72;;;;;;;14.76;60.55;95233.81;5031454;28;20217;-68
2023/05/09 04:20:07;;;;;;;5.03;4.65;;;;;;;14.84;60.19;95240.88;5043235;28;20228;-68
2023/05/09 04:22:32;;;;;;;5.20;4.70;;;;;;;14.86;60.06;95241.53;5032815;28;20267;-69
2023/05/09 04:24:58;;;;;;;6.35;5.10;;;;;;;14.84;60.26;95234.78;5032053;28;20217;-68
2023/05/09 04:27:23;;;;;;;5.90;5.15;;;;;;;14.95;60.07;95244.97;5041057;28;20226;-67
2023/05/09 04:29:49;;;;;;;5.57;5.03;;;;;;;15.02;59.81;95242.44;5023167;28;20218;-68
2023/05/09 04:32:14;;;;;;;5.43;4.75;;;;;;;14.95;60.08;95243.13;5030596;28;20229;-68
2023/05/09 04:34:40;;;;;;;7.03;4.75;;;;;;;15.11;59.64;95241.41;5025237;28;20273;-67
2023/05/09 04:37:05;;;;;;;6.20;4.75;;;;;;;15.08;59.56;95239.13;5025217;28;20732;-68
2023/05/09 04:39:31;;;;;;;6.65;5.38;;;;;;;15.04;59.82;95240.44;5026093;28;20308;-69
2023/05/09 04:41:56;;;;;;;7.70;5.20;;;;;;;15.08;59.36;95242.59;5027315;28;20218;-68
2023/05/09 04:44:23;;;;;;;5.53;4.93;;;;;;;14.97;59.97;95245.63;5032780;28;20245;-68
2023/05/09 04:46:49;;;;;;;6.15;5.43;;;;;;;15.06;59.75;95241.09;5039012;28;20181;-67
2023/05/09 04:49:15;;;;;;;8.65;5.35;;;;;;;15.19;59.64;95247.47;5028143;28;20185;-68
2023/05/09 04:51:40;;;;;;;5.55;4.70;;;;;;;15.22;59.07;95246.31;5041152;28;20225;-67
2023/05/09 04:54:05;;;;;;;5.35;4.85;;;;;;;15.17;59.00;95251.31;5028120;28;20254;-68
2023/05/09 04:56:31;;;;;;;9.02;5.07;;;;;;;15.07;59.70;95248.88;5023565;28;20253;-69
2023/05/09 04:58:56;;;;;;;7.82;5.60;;;;;;;15.30;59.07;95240.13;5035363;28;20220;-69
2023/05/09 05:01:22;;;;;;;9.43;4.97;;;;;;;15.44;58.86;95245.50;5037362;28;20185;-69
2023/05/09 05:03:47;;;;;;;6.00;4.03;;;;;;;15.38;57.59;95242.72;5044215;28;20241;-69
2023/05/09 05:06:12;;;;;;;4.60;3.17;;;;;;;15.40;57.52;95240.75;5035446;28;20217;-69
2023/05/09 05:08:38;;;;;;;5.15;3.70;;;;;;;15.45;57.01;95243.69;5014219;28;20308;-68
2023/05/09 05:11:03;;;;;;;4.63;3.40;;;;;;;15.62;56.96;95241.75;5032048;28;20574;-69
2023/05/09 05:13:29;;;;;;;3.85;3.15;;;;;;;15.54;56.73;95237.31;5046575;28;20195;-69
2023/05/09 05:15:55;;;;;;;6.40;3.25;;;;;;;15.66;56.32;95243.00;5032030;28;20229;-68
2023/05/09 05:18:21;;;;;;;5.05;2.83;;;;;;;15.63;56.46;95235.44;5033826;28;20217;-68
2023/05/09 05:20:46;;;;;;;3.08;2.58;;;;;;;15.58;55.79;95243.09;5033592;28;20214;-67
2023/05/09 05:23:11;;;;;;;5.30;2.53;;;;;;;15.36;56.53;95248.19;5030300;28;20218;-66
2023/05/09 05:25:37;;;;;;;3.17;2.40;;;;;;;15.41;56.08;95239.72;5030892;28;20192;-66
2023/05/09 05:28:03;;;;;;;2.30;2.08;;;;;;;15.31;56.55;95236.47;5027211;28;20193;-66
2023/05/09 05:30:28;;;;;;;3.05;2.15;;;;;;;15.50;56.24;95245.78;5029383;28;20221;-66
2023/05/09 05:32:54;;;;;;;5.45;2.50;;;;;;;15.48;55.81;95247.81;5041525;28;20224;-67
2023/05/09 05:35:22;;;;;;;2.42;2.22;;;;;;;15.15;56.65;95248.00;5018793;28;20237;-68
2023/05/09 05:37:48;;;;;;;5.00;2.00;;;;;;;15.34;56.33;95252.03;5032277;28;20194;-69
2023/05/09 05:40:13;;;;;;;2.38;2.00;;;;;;;15.61;55.37;95253.31;5033602;28;20209;-70
2023/05/09 05:42:38;;;;;;;4.03;2.25;;;;;;;15.78;54.92;95254.91;5030089;28;20222;-70
2023/05/09 05:45:05;;;;;;;3.40;2.50;;;;;;;15.70;55.40;95247.00;5026329;28;20226;-70
2023/05/09 05:47:34;;;;;;;3.95;2.20;;;;;;;15.75;55.22;95254.44;5031617;28;20283;-71
2023/05/09 05:50:01;;;;;;;6.90;2.42;;;;;;;15.88;55.03;95258.13;5029713;28;20283;-72
2023/05/09 05:52:27;;;;;;;2.50;1.42;;;;;;;15.90;54.85;95251.81;5029246;28;20261;-72
2023/05/09 05:54:53;;;;;;;6.35;1.90;;;;;;;15.70;55.97;95257.59;5041169;28;20368;-68
2023/05/09 05:57:19;;;;;;;2.10;1.70;;;;;;;15.84;55.33;95258.66;5028816;28;20209;-69
2023/05/09 05:59:48;;;;;;;4.53;1.73;;;;;;;15.93;55.23;95262.91;5040764;28;20229;-70
2023/05/09 06:02:15;;;;;;;3.33;1.35;;;;;;;15.99;55.09;95256.06;5040714;28;20218;-68
2023/05/09 06:04:41;;;;;;;2.75;1.58;;;;;;;16.21;54.30;95259.66;5027379;28;20233;-67
2023/05/09 06:07:06;;;;;;;4.80;2.00;;;;;;;16.08;54.10;95247.81;5026991;28;20189;-66
2023/05/09 06:09:32;;;;;;;2.35;1.90;;;;;;;16.04;54.00;95249.22;5030394;28;20217;-66
2023/05/09 06:11:57;;;;;;;1.83;1.40;;;;;;;15.91;53.78;95249.00;5042374;28;20214;-65
2023/05/09 06:14:23;;;;;;;4.38;2.13;;;;;;;15.66;54.35;95259.78;5017673;28;20303;-67
2023/05/09 06:16:48;;;;;;;4.30;2.05;;;;;;;15.88;54.53;95260.78;5026108;28;20228;-66
2023/05/09 06:19:14;;;;;;;2.47;1.40;;;;;;;15.99;54.02;95256.06;5028689;28;20198;-65
2023/05/09 06:21:39;;;;;;;2.28;1.00;;;;;;;16.07;53.78;95250.69;5028355;28;20253;-70
2023/05/09 06:24:05;;;;;;;1.75;1.40;;;;;;;16.03;54.46;95262.63;5029802;28;20304;-68
2023/05/09 06:26:30;;;;;;;3.90;1.27;;;;;;;15.84;54.91;95253.34;5033729;28;20301;-68
2023/05/09 06:28:56;;;;;;;3.08;1.38;;;;;;;15.89;54.41;95245.69;5031295;28;20221;-68
2023/05/09 06:31:21;;;;;;;2.15;1.42;;;;;;;16.04;54.41;95259.81;5026798;28;20189;-68
2023/05/09 06:33:47;;;;;;;2.33;1.33;;;;;;;16.12;54.08;95255.44;5033572;28;20218;-67
2023/05/09 06:36:12;;;;;;;4.00;1.10;;;;;;;16.19;53.16;95257.19;5029888;28;20216;-68
2023/05/09 06:38:37;;;;;;;1.55;1.08;;;;;;;16.23;53.23;95262.97;5029236;28;20221;-68
2023/05/09 06:41:03;;;;;;;2.58;1.27;;;;;;;16.26;52.62;95257.31;5024287;28;20600;-67
2023/05/09 06:43:28;;;;;;;1.42;1.20;;;;;;;16.13;52.87;95243.84;5024440;28;20194;-70
2023/05/09 06:45:54;;;;;;;1.33;1.00;;;;;;;16.23;52.03;95261.13;5028646;28;20221;-66
2023/05/09 06:48:20;;;;;;;2.17;0.98;;;;;;;16.23;51.68;95257.66;5033685;28;20214;-66
2023/05/09 06:50:45;;;;;;;0.90;0.90;;;;;;;16.25;51.27;95245.88;5026372;28;20241;-67
2023/05/09 06:53:11;;;;;;;1.92;1.05;;;;;;;16.24;50.99;95254.81;5030176;28;20221;-69
2023/05/09 06:55:36;;;;;;;3.17;1.40;;;;;;;16.27;51.47;95250.97;5030585;28;20192;-70
2023/05/09 06:58:02;;;;;;;1.52;1.42;;;;;;;16.40;51.08;95258.31;5028581;28;20204;-69
2023/05/09 07:00:28;;;;;;;1.70;1.23;;;;;;;16.48;50.27;95252.91;5023350;28;20241;-71
2023/05/09 07:02:53;;;;;;;3.88;1.42;;;;;;;16.50;49.93;95257.03;5020412;28;20237;-69
2023/05/09 07:05:19;;;;;;;2.80;2.25;;;;;;;16.59;49.91;95249.81;5030401;28;20213;-66
2023/05/09 07:07:44;;;;;;;2.45;1.98;;;;;;;16.40;50.31;95239.75;5024394;28;20189;-68
2023/05/09 07:10:10;;;;;;;4.07;1.83;;;;;;;16.45;49.71;95245.31;5023122;28;20181;-70
2023/05/09 07:12:36;;;;;;;2.97;1.65;;;;;;;16.33;49.67;95236.97;5036544;28;20208;-71
2023/05/09 07:15:01;;;;;;;2.53;1.80;;;;;;;16.47;49.65;95243.31;5029211;28;20275;-71
2023/05/09 07:17:28;;;;;;;1.52;1.42;;;;;;;16.36;49.85;95241.09;5031278;28;20221;-71
2023/05/09 07:19:54;;;;;;;1.52;1.42;;;;;;;16.28;50.11;95245.50;5031853;28;20228;-69
2023/05/09 07:22:20;;;;;;;1.83;1.05;;;;;;;16.39;50.30;95246.88;5026940;28;20204;-67
2023/05/09 07:24:46;;;;;;;4.35;1.30;;;;;;;16.33;50.55;95250.25;5030256;28;20217;-67
2023/05/09 07:27:11;;;;;;;2.45;1.38;;;;;;;16.33;50.38;95252.91;5028814;28;20205;-70
2023/05/09 07:29:37;;;;;;;2.88;1.73;;;;;;;16.39;50.45;95241.56;5031268;28;20225;-67
2023/05/09 07:32:02;;;;;;;3.55;1.70;;;;;;;16.35;50.45;95236.81;5029290;28;20220;-65
2023/05/09 07:34:28;;;;;;;1.65;1.55;;;;;;;16.53;49.79;95251.38;5035252;28;20188;-67
2023/05/09 07:36:53;;;;;;;1.85;1.50;;;;;;;16.51;49.62;95241.94;5030833;28;20240;-69
2023/05/09 07:39:19;;;;;;;2.17;1.70;;;;;;;16.39;49.69;95238.91;5035274;28;20238;-69
2023/05/09 07:41:44;;;;;;;2.92;1.40;;;;;;;16.44;49.67;95246.31;5025466;28;20222;-68
2023/05/09 07:44:10;;;;;;;2.58;1.50;;;;;;;16.49;49.63;95251.91;5032280;28;20223;-70
2023/05/09 07:46:37;;;;;;;2.38;1.73;;;;;;;16.65;49.60;95251.75;5025195;28;20189;-67
2023/05/09 07:49:02;;;;;;;2.95;1.90;;;;;;;16.57;49.52;95254.47;5042865;28;20177;-67
2023/05/09 07:51:28;;;;;;;2.95;1.40;;;;;;;16.49;48.96;95257.22;5027996;28;20217;-67
2023/05/09 07:53:55;;;;;;;2.47;1.45;;;;;;;16.53;49.35;95247.88;5032618;28;20240;-68
2023/05/09 07:56:21;;;;;;;1.60;1.45;;;;;;;16.61;48.50;95262.91;5031209;28;20214;-67
2023/05/09 07:58:47;;;;;;;3.28;1.50;;;;;;;16.63;48.35;95255.59;5043829;28;20228;-69
2023/05/09 08:01:13;;;;;;;4.30;1.65;;;;;;;16.65;48.90;95251.75;5029411;28;20181;-70
2023/05/09 08:03:38;;;;;;;4.78;1.67;;;;;;;16.62;49.75;95254.75;5025041;28;20233;-70
2023/05/09 08:06:04;;;;;;;1.58;1.27;;;;;;;16.69;49.89;95250.34;5028884;28;20225;-68
2023/05/09 08:08:29;;;;;;;1.55;1.45;;;;;;;16.46;50.74;95247.78;5019695;28;20285;-69
2023/05/09 08:10:55;;;;;;;4.03;1.67;;;;;;;16.69;49.92;95249.53;5030199;28;20225;-70
2023/05/09 08:13:21;;;;;;;2.83;1.45;;;;;;;16.76;49.42;95245.97;5029189;28;20277;-69
2023/05/09 08:15:47;;;;;;;2.63;1.90;;;;;;;16.80;49.01;95246.44;5042081;28;20214;-67
2023/05/09 08:18:13;;;;;;;3.63;1.83;;;;;;;16.78;49.25;95251.09;5027537;28;20232;-68
2023/05/09 08:20:39;;;;;;;2.33;2.13;;;;;;;16.83;48.93;95253.22;5026823;28;20251;-69
2023/05/09 08:23:05;;;;;;;3.15;1.85;;;;;;;16.97;48.49;95244.41;5032535;28;20297;-68
2023/05/09 08:25:31;;;;;;;3.05;1.90;;;;;;;17.08;48.71;95248.41;5036102;28;20185;-68
2023/05/09 08:27:56;;;;;;;2.45;1.23;;;;;;;17.05;47.60;95246.94;5026544;28;20361;-68
2023/05/09 08:30:21;;;;;;;2.15;1.35;;;;;;;17.05;47.84;95246.94;5028870;28;20343;-68
2023/05/09 08:32:47;;;;;;;2.58;1.40;;;;;;;17.19;47.86;95251.44;5033094;28;20225;-67
2023/05/09 08:35:12;;;;;;;2.60;0.98;;;;;;;17.35;47.65;95241.59;5024842;28;20288;-67
2023/05/09 08:37:38;;;;;;;1.92;1.10;;;;;;;17.27;48.36;95239.88;5031786;28;20196;-66
2023/05/09 08:40:07;;;;;;;2.00;1.10;;;;;;;17.29;48.47;95243.13;5040254;28;20217;-66
2023/05/09 08:42:35;;;;;;;2.20;1.17;;;;;;;17.35;48.28;95252.22;5031549;28;20650;-69
2023/05/09 08:45:06;;;;;;;1.25;0.90;;;;;;;17.41;47.26;95246.97;5031814;28;20218;-69
2023/05/09 08:47:37;;;;;;;1.48;1.10;;;;;;;17.46;47.38;95242.94;5035363;28;20209;-69
2023/05/09 08:50:04;;;;;;;1.65;1.30;;;;;;;17.46;47.84;95232.31;5043872;28;20947;-69
2023/05/09 08:52:32;;;;;;;1.30;1.20;;;;;;;17.32;47.89;95231.31;5042518;28;20230;-68
2023/05/09 08:54:58;;;;;;;2.65;1.00;;;;;;;16.91;48.92;95234.53;5034884;28;20296;-68
2023/05/09 08:57:26;;;;;;;1.30;1.08;;;;;;;17.10;48.17;95241.09;5030914;28;20225;-70
2023/05/09 08:59:52;;;;;;;1.77;1.00;;;;;;;17.12;47.77;95239.88;5034149;28;20241;-68
2023/05/09 09:02:18;;;;;;;1.20;1.10;;;;;;;17.19;47.85;95240.81;5031505;28;20229;-68
2023/05/09 09:04:44;;;;;;;6.38;1.20;;;;;;;17.39;48.05;95241.00;5033173;28;20194;-69
2023/05/09 09:07:10;;;;;;;1.00;0.80;;;;;;;17.38;47.87;95239.38;5052627;28;20290;-72
2023/05/09 09:09:37;;;;;;;2.08;1.02;;;;;;;17.42;47.98;95239.81;5029508;28;20214;-72
2023/05/09 09:12:08;;;;;;;3.50;1.05;;;;;;;17.54;47.42;95230.34;5046836;28;20272;-71
2023/05/09 09:14:38;;;;;;;3.95;1.25;;;;;;;17.76;47.14;95238.31;5048924;28;20257;-70
2023/05/09 09:17:05;;;;;;;18.77;2.15;;;;;;;17.80;47.02;95236.94;5033153;28;20226;-69
2023/05/09 09:19:33;;;;;;;5.35;1.52;;;;;;;17.97;46.95;95235.66;5034499;28;20214;-69
2023/05/09 09:22:01;;;;;;;45.97;5.32;;;;;;;18.14;46.63;95252.16;5032847;28;20231;-69
2023/05/09 09:24:27;;;;;;;0.93;0.93;;;;;;;18.04;46.34;95244.53;5036306;28;20216;-68
2023/05/09 09:26:53;;;;;;;1.80;1.02;;;;;;;18.01;46.35;95252.88;5028175;28;20224;-69
2023/05/09 09:29:19;;;;;;;2.53;1.00;;;;;;;17.89;46.67;95250.94;5033006;28;20221;-69
2023/05/09 09:31:46;;;;;;;1.33;1.23;;;;;;;17.69;47.23;95240.06;5033165;28;20261;-69
2023/05/09 09:34:19;;;;;;;1.42;1.20;;;;;;;17.72;46.89;95245.84;5028726;28;20556;-72
2023/05/09 09:36:45;;;;;;;2.25;1.40;;;;;;;17.74;47.06;95248.31;5017128;28;20213;-72
2023/05/09 09:39:12;;;;;;;2.45;1.30;;;;;;;17.84;46.94;95254.97;5028748;28;20248;-72
2023/05/09 09:41:39;;;;;;;3.13;1.38;;;;;;;17.75;47.23;95255.25;5031730;28;20216;-72
2023/05/09 09:44:10;;;;;;;1.77;1.20;;;;;;;17.54;47.42;95246.28;5032154;28;20214;-69
2023/05/09 09:46:54;;;;;;;1.10;1.02;;;;;;;17.57;47.25;95245.91;5024771;28;20201;-70
2023/05/09 09:49:22;;;;;;;1.48;1.30;;;;;;;17.36;47.66;95252.03;5032508;28;20202;-70
2023/05/09 09:51:56;;;;;;;1.10;1.00;;;;;;;17.34;47.58;95250.56;5025985;28;20291;-68
2023/05/09 09:54:22;;;;;;;1.50;1.40;;;;;;;17.00;48.66;95252.03;5046519;28;20647;-67
2023/05/09 09:56:49;;;;;;;2.63;1.50;;;;;;;17.16;48.27;95256.28;5052423;28;20337;-67
2023/05/09 09:59:23;;;;;;;1.70;1.33;;;;;;;17.19;48.26;95254.09;5024752;28;20265;-68
2023/05/09 10:02:00;;;;;;;1.38;1.27;;;;;;;17.26;48.27;95248.00;5041123;28;20243;-68
2023/05/09 10:04:33;;;;;;;4.03;1.30;;;;;;;17.18;47.94;95246.28;5051338;28;20222;-68
2023/05/09 10:07:04;;;;;;;1.25;1.10;;;;;;;17.20;47.91;95246.94;5023887;28;20229;-67
2023/05/09 10:09:31;;;;;;;1.42;1.23;;;;;;;17.35;47.80;95252.22;5030534;28;20213;-68
2023/05/09 10:12:01;;;;;;;1.40;1.30;;;;;;;17.50;47.23;95239.69;5029642;28;20240;-67
2023/05/09 10:14:27;;;;;;;1.50;1.40;;;;;;;17.57;46.92;95242.44;5043813;28;20221;-68
2023/05/09 10:16:56;;;;;;;1.35;1.25;;;;;;;17.58;46.89;95226.25;5033969;28;20193;-67
2023/05/09 10:19:25;;;;;;;2.25;1.60;;;;;;;17.54;47.90;95229.50;5023003;28;20210;-71
2023/05/09 10:22:01;;;;;;;2.13;1.63;;;;;;;17.36;48.48;95237.91;5044123;28;20221;-70
2023/05/09 10:24:34;;;;;;;2.05;1.77;;;;;;;17.42;48.68;95237.97;5042811;28;20293;-63
2023/05/09 10:27:05;;;;;;;1.25;1.20;;;;;;;17.55;48.36;95236.47;5030318;28;20221;-66
2023/05/09 10:29:43;;;;;;;1.65;1.50;;;;;;;17.54;48.54;95232.19;5036247;28;20213;-69
2023/05/09 10:32:26;;;;;;;3.45;1.30;;;;;;;17.66;47.66;95243.94;5033466;28;20229;-69
2023/05/09 10:34:57;;;;;;;1.58;1.48;;;;;;;17.57;47.29;95237.09;5025170;28;20186;-69
2023/05/09 10:37:24;;;;;;;2.00;1.48;;;;;;;17.52;47.86;95237.66;5030649;28;20219;-67
2023/05/09 10:39:54;;;;;;;3.67;1.73;;;;;;;17.33;48.75;95236.44;5027003;28;20222;-71
2023/05/09 10:42:20;;;;;;;3.13;1.95;;;;;;;17.51;48.67;95240.50;5029367;28;20343;-66
2023/05/09 10:44:46;;;;;;;1.88;1.73;;;;;;;17.60;47.44;95234.88;5011201;28;20286;-65
2023/05/09 10:47:13;;;;;;;2.20;1.92;;;;;;;17.58;47.50;95226.25;5030547;28;20214;-66
2023/05/09 10:49:39;;;;;;;4.13;2.22;;;;;;;17.82;47.06;95235.72;5033873;28;20184;-68
2023/05/09 10:52:05;;;;;;;4.95;2.00;;;;;;;17.79;47.20;95238.78;5048525;28;20186;-68
2023/05/09 10:54:34;;;;;;;1.88;1.70;;;;;;;17.83;47.11;95237.38;5046655;28;20217;-68
2023/05/09 10:56:59;;;;;;;3.22;2.13;;;;;;;18.06;46.86;95237.16;5027696;28;20210;-68
2023/05/09 10:59:52;;;;;;;3.08;2.20;;;;;;;18.06;46.93;95241.66;5029493;28;20278;-67
2023/05/09 11:02:20;;;;;;;1.88;1.75;;;;;;;18.03;47.26;95240.19;5036375;28;20221;-66
2023/05/09 11:04:46;;;;;;;3.95;2.08;;;;;;;18.05;46.77;95248.81;5006896;28;20746;-66
2023/05/09 11:07:25;;;;;;;3.92;2.40;;;;;;;17.73;47.35;95228.88;5012120;28;20278;-67
2023/05/09 11:10:05;;;;;;;4.13;2.30;;;;;;;17.98;47.45;95236.47;5009750;28;20702;-66
2023/05/09 11:12:31;;;;;;;3.38;2.08;;;;;;;18.02;46.86;95241.22;5030896;28;20214;-68
2023/05/09 11:15:04;;;;;;;4.60;2.17;;;;;;;17.94;47.22;95236.06;5013843;28;20230;-67
2023/05/09 11:17:31;;;;;;;2.53;2.05;;;;;;;17.95;46.99;95240.34;5013377;28;20301;-69
2023/05/09 11:19:58;;;;;;;4.10;2.40;;;;;;;18.04;46.72;95241.03;5011446;28;20292;-67
2023/05/09 11:22:31;;;;;;;2.75;2.25;;;;;;;18.25;46.41;95238.31;5014255;28;20201;-68
2023/05/09 11:25:00;;;;;;;3.25;2.95;;;;;;;18.59;45.84;95242.03;5030060;28;20222;-69
2023/05/09 11:27:29;;;;;;;2.30;2.10;;;;;;;18.57;45.14;95240.59;5029610;28;20222;-69
2023/05/09 11:29:57;;;;;;;2.05;1.90;;;;;;;18.63;44.62;95239.78;5011621;28;20218;-69
2023/05/09 11:32:50;;;;;;;2.90;2.70;;;;;;;18.66;44.46;95239.41;5031631;28;20218;-69
2023/05/09 11:35:18;;;;;;;3.30;3.00;;;;;;;18.62;45.03;95244.28;4970333;28;20275;-70